Terminal Aerodrome Forecast
Issued by NWS

Home | Current Version | Previous Version | Graphics & Text | Print | Product List | Glossary Off
Versions: 1 2 3 4 5 6 7 8 9 10 11 12 13 14 15 16 17 18 19 20 21 22 23 24 25 26 27 28 29 30 31 32 33 34

000
FTUS43 KDDC 030640 AAA
TAFGCK
TAF AMD
KGCK 030640Z 0307/0406 19023G33KT P6SM SCT012 BKN200
      TEMPO 0307/0311 BKN012
     FM031300 23012KT P6SM BKN200
     FM031600 36013G23KT P6SM SCT015 SCT200=

USA.gov is the U.S. government's official web portal to all federal, state and local government web resources and services.